createdAt,value
2023-02-11T00:01:34.476Z,3.60
2023-02-11T00:06:33.608Z,3.50
2023-02-11T00:14:02.757Z,3.80
2023-02-11T00:19:02.452Z,3.80
2023-02-11T00:24:02.387Z,3.80
2023-02-11T00:26:35.128Z,3.80
2023-02-11T00:36:31.357Z,3.80
2023-02-11T00:39:01.449Z,3.80
2023-02-11T00:51:28.178Z,3.80
2023-02-11T01:11:20.933Z,3.80
2023-02-11T01:13:51.144Z,3.90
2023-02-11T01:41:14.629Z,4.10
2023-02-11T01:43:50.922Z,4.10
2023-02-11T01:46:25.021Z,4.30
2023-02-11T01:49:12.444Z,4.30
2023-02-11T01:51:48.494Z,4.30
2023-02-11T01:54:39.340Z,4.30
2023-02-11T01:57:25.089Z,4.40
2023-02-11T02:00:29.119Z,4.90
2023-02-11T02:03:07.624Z,4.50
2023-02-11T02:05:47.013Z,4.60
2023-02-11T02:08:29.941Z,4.60
2023-02-11T02:13:34.830Z,4.70
2023-02-11T02:16:10.175Z,4.70
2023-02-11T02:21:34.141Z,4.70
2023-02-11T02:24:34.693Z,4.70
2023-02-11T02:27:36.160Z,4.70
2023-02-11T02:30:31.921Z,4.00
2023-02-11T02:33:48.596Z,4.70
2023-02-11T02:36:33.188Z,4.70
2023-02-11T02:39:09.344Z,4.70
2023-02-11T02:41:39.171Z,4.70
2023-02-11T02:44:09.942Z,4.80
2023-02-11T02:49:14.669Z,4.80
2023-02-11T02:52:01.290Z,4.90
2023-02-11T02:55:09.887Z,4.80
2023-02-11T02:57:50.493Z,4.90
2023-02-11T03:00:59.945Z,4.90
2023-02-11T03:06:21.304Z,5.00
2023-02-11T03:09:11.153Z,5.90
2023-02-11T03:14:12.349Z,5.00
2023-02-11T03:16:41.356Z,5.00
2023-02-11T03:19:19.866Z,5.00
2023-02-11T03:21:50.547Z,5.00
2023-02-11T03:24:34.745Z,5.00
2023-02-11T03:27:34.986Z,4.80
2023-02-11T03:30:15.060Z,5.10
2023-02-11T03:32:57.264Z,5.10
2023-02-11T03:35:54.651Z,5.10
2023-02-11T03:38:35.895Z,5.10
2023-02-11T03:41:07.795Z,5.10
2023-02-11T03:43:43.342Z,7.10
2023-02-11T03:46:15.919Z,5.00
2023-02-11T03:48:50.897Z,5.10
2023-02-11T03:53:49.585Z,5.20
2023-02-11T03:56:23.096Z,5.20
2023-02-11T04:46:00.377Z,5.00
2023-02-11T05:10:48.973Z,5.60
2023-02-11T05:20:44.981Z,5.60
2023-02-11T05:23:13.876Z,5.60
2023-02-11T06:50:15.578Z,5.80
2023-02-11T07:05:08.830Z,5.90
2023-02-11T07:37:20.685Z,6.20
2023-02-11T07:54:44.408Z,6.20
2023-02-11T08:02:10.866Z,6.20
2023-02-11T08:17:01.858Z,6.00
2023-02-11T08:21:59.933Z,6.40
2023-02-11T08:39:23.107Z,6.60
2023-02-11T08:41:54.533Z,6.70
2023-02-11T08:44:24.183Z,6.70
2023-02-11T08:46:53.108Z,6.80
2023-02-11T08:54:19.161Z,6.50
2023-02-11T09:06:44.694Z,6.90
2023-02-11T09:09:17.345Z,7.10
2023-02-11T09:11:46.397Z,7.10
2023-02-11T09:14:21.875Z,7.10
2023-02-11T09:19:20.097Z,7.00
2023-02-11T09:24:17.008Z,7.60
2023-02-11T09:34:12.822Z,7.30
2023-02-11T09:36:41.932Z,7.30
2023-02-11T09:39:16.913Z,7.30
2023-02-11T09:42:43.327Z,7.30
2023-02-11T09:45:21.247Z,7.40
2023-02-11T09:48:06.270Z,7.50
2023-02-11T09:50:43.076Z,7.60
2023-02-11T09:53:30.766Z,7.60
2023-02-11T09:56:02.662Z,7.60
2023-02-11T10:04:07.374Z,7.50
2023-02-11T10:06:53.234Z,7.40
2023-02-11T10:10:03.525Z,7.90
2023-02-11T10:12:51.221Z,6.90
2023-02-11T10:18:23.964Z,7.90
2023-02-11T10:21:34.273Z,7.90
2023-02-11T10:24:07.181Z,8.40
2023-02-11T10:26:38.521Z,7.90
2023-02-11T10:29:37.993Z,8.20
2023-02-11T10:32:41.764Z,8.00
2023-02-11T10:35:28.284Z,7.70
2023-02-11T10:37:57.041Z,7.70
2023-02-11T10:40:32.386Z,8.10
2023-02-11T10:43:05.833Z,8.10
2023-02-11T10:45:44.372Z,8.50
2023-02-11T10:48:49.491Z,8.20
2023-02-11T10:51:31.574Z,8.20
2023-02-11T10:54:05.586Z,8.20
2023-02-11T10:56:46.233Z,8.20
2023-02-11T10:59:40.439Z,8.10
2023-02-11T11:02:34.460Z,8.30
2023-02-11T11:05:18.718Z,8.10
2023-02-11T11:08:01.798Z,8.50
2023-02-11T11:10:44.418Z,8.40
2023-02-11T11:13:34.224Z,8.40
2023-02-11T11:16:10.177Z,8.00
2023-02-11T11:21:24.689Z,7.70
2023-02-11T11:24:00.781Z,8.50
2023-02-11T11:26:44.939Z,8.70
2023-02-11T11:29:29.238Z,7.90
2023-02-11T11:32:26.487Z,8.20
2023-02-11T11:34:58.433Z,8.20
2023-02-11T11:37:36.738Z,8.80
2023-02-11T11:40:16.962Z,8.20
2023-02-11T11:42:45.252Z,7.80
2023-02-11T11:45:19.652Z,8.90
2023-02-11T11:48:20.886Z,8.70
2023-02-11T11:50:51.579Z,8.80
2023-02-11T11:53:42.933Z,8.30
2023-02-11T11:56:25.535Z,8.00
2023-02-11T11:58:55.265Z,8.30
2023-02-11T12:01:54.088Z,8.80
2023-02-11T12:04:34.925Z,8.60
2023-02-11T12:07:47.258Z,8.60
2023-02-11T12:11:16.626Z,8.20
2023-02-11T12:14:22.608Z,8.30
2023-02-11T12:17:03.889Z,7.90
2023-02-11T12:19:48.656Z,8.10
2023-02-11T12:22:37.955Z,8.20
2023-02-11T12:25:05.975Z,8.50
2023-02-11T12:28:01.733Z,8.40
2023-02-11T12:30:47.360Z,8.40
2023-02-11T12:33:27.655Z,8.60
2023-02-11T12:36:40.830Z,8.30
2023-02-11T12:39:21.031Z,8.30
2023-02-11T12:42:33.053Z,5.00
2023-02-11T12:45:13.090Z,8.30
2023-02-11T12:48:06.197Z,8.00
2023-02-11T12:51:14.459Z,8.20
2023-02-11T12:56:30.829Z,8.40
2023-02-11T12:59:02.084Z,8.40
2023-02-11T13:01:41.137Z,8.20
2023-02-11T13:04:40.206Z,8.40
2023-02-11T13:07:24.520Z,8.60
2023-02-11T13:10:25.942Z,8.90
2023-02-11T13:13:14.333Z,8.30
2023-02-11T13:15:57.517Z,8.10
2023-02-11T13:18:50.944Z,8.00
2023-02-11T13:21:47.923Z,8.40
2023-02-11T13:25:09.430Z,8.30
2023-02-11T13:27:50.529Z,8.60
2023-02-11T13:30:34.150Z,8.30
2023-02-11T13:35:43.251Z,8.20
2023-02-11T13:38:29.203Z,8.10
2023-02-11T13:41:03.136Z,8.30
2023-02-11T13:43:33.988Z,8.30
2023-02-11T13:48:54.443Z,8.50
2023-02-11T13:51:52.612Z,8.30
2023-02-11T13:54:30.316Z,8.30
2023-02-11T13:57:38.904Z,8.20
2023-02-11T14:00:36.183Z,8.30
2023-02-11T14:03:33.137Z,7.90
2023-02-11T14:06:27.049Z,8.20
2023-02-11T14:09:15.904Z,8.20
2023-02-11T14:11:55.425Z,8.20
2023-02-11T14:14:34.977Z,7.70
2023-02-11T14:17:09.357Z,8.30
2023-02-11T14:19:47.282Z,8.10
2023-02-11T14:22:19.743Z,8.50
2023-02-11T14:25:04.718Z,8.20
2023-02-11T14:27:44.641Z,8.10
2023-02-11T14:30:42.825Z,8.30
2023-02-11T14:33:53.733Z,8.30
2023-02-11T14:36:31.892Z,8.20
2023-02-11T14:39:45.987Z,8.20
2023-02-11T14:42:22.474Z,8.20
2023-02-11T14:44:52.465Z,7.60
2023-02-11T14:47:29.938Z,8.20
2023-02-11T14:49:58.363Z,7.70
2023-02-11T14:52:31.380Z,8.30
2023-02-11T14:55:24.722Z,7.70
2023-02-11T14:58:14.348Z,8.10
2023-02-11T15:01:00.132Z,8.20
2023-02-11T15:03:39.738Z,7.80
2023-02-11T15:06:21.020Z,8.30
2023-02-11T15:09:20.044Z,8.40
2023-02-11T15:11:52.513Z,8.60
2023-02-11T15:14:25.042Z,8.20
2023-02-11T15:16:56.534Z,9.00
2023-02-11T15:19:27.605Z,8.00
2023-02-11T15:24:32.014Z,9.00
2023-02-11T15:27:18.556Z,8.10
2023-02-11T15:29:51.060Z,8.20
2023-02-11T15:32:26.773Z,8.30
2023-02-11T15:34:57.388Z,8.30
2023-02-11T15:37:30.174Z,8.30
2023-02-11T15:40:19.978Z,8.40
2023-02-11T15:43:06.069Z,8.60
2023-02-11T15:45:44.156Z,8.10
2023-02-11T15:48:18.639Z,8.10
2023-02-11T15:50:54.733Z,9.10
2023-02-11T15:53:32.793Z,8.40
2023-02-11T15:56:13.791Z,8.30
2023-02-11T15:58:45.470Z,8.30
2023-02-11T16:01:14.204Z,7.80
2023-02-11T16:03:44.374Z,8.20
2023-02-11T16:06:17.089Z,8.30
2023-02-11T16:11:48.686Z,8.30
2023-02-11T16:14:30.594Z,7.80
2023-02-11T16:17:13.731Z,8.00
2023-02-11T16:19:50.910Z,8.30
2023-02-11T16:22:35.377Z,8.80
2023-02-11T16:25:03.624Z,10.90
2023-02-11T16:27:43.134Z,8.20
2023-02-11T16:30:30.651Z,8.10
2023-02-11T16:35:27.148Z,8.70
2023-02-11T16:37:55.576Z,8.50
2023-02-11T16:47:50.049Z,8.70
2023-02-11T16:50:25.537Z,8.20
2023-02-11T17:00:19.888Z,8.00
2023-02-11T17:02:48.042Z,8.30
2023-02-11T17:05:23.378Z,7.70
2023-02-11T17:07:51.467Z,8.50
2023-02-11T17:10:23.920Z,8.40
2023-02-11T17:12:53.406Z,8.40
2023-02-11T17:20:18.635Z,8.10
2023-02-11T17:30:14.183Z,8.20
2023-02-11T17:35:11.045Z,8.90
2023-02-11T17:40:09.583Z,8.40
2023-02-11T17:45:07.201Z,8.30
2023-02-11T18:02:26.486Z,8.10
2023-02-11T18:07:26.604Z,8.50
2023-02-11T18:09:54.866Z,8.50
2023-02-11T18:14:57.992Z,7.50
2023-02-11T18:17:26.875Z,8.30
2023-02-11T18:19:59.225Z,7.90
2023-02-11T18:22:27.986Z,7.90
2023-02-11T18:24:56.742Z,7.80
2023-02-11T18:39:48.032Z,8.10
2023-02-11T18:42:16.094Z,8.10
2023-02-11T19:07:03.177Z,7.00
2023-02-11T19:09:31.802Z,7.40
2023-02-11T19:12:01.876Z,7.40
2023-02-11T19:14:34.910Z,7.30
2023-02-11T19:17:10.740Z,7.60
2023-02-11T19:24:39.756Z,7.70
2023-02-11T19:32:07.075Z,7.40
2023-02-11T19:37:12.526Z,7.60
2023-02-11T19:39:42.583Z,7.20
2023-02-11T19:42:10.973Z,7.50
2023-02-11T19:47:07.982Z,7.60
2023-02-11T19:49:36.072Z,7.60
2023-02-11T19:52:04.249Z,7.10
2023-02-11T19:54:32.452Z,7.50
2023-02-11T19:57:00.652Z,8.10
2023-02-11T20:04:25.842Z,7.40
2023-02-11T20:06:54.107Z,7.80
2023-02-11T20:19:22.065Z,7.80
2023-02-11T20:21:55.773Z,7.50
2023-02-11T20:24:25.296Z,7.50
2023-02-11T20:26:55.861Z,7.80
2023-02-11T20:29:25.544Z,7.90
2023-02-11T20:31:53.877Z,7.90
2023-02-11T20:36:52.812Z,8.00
2023-02-11T20:39:23.453Z,7.50
2023-02-11T20:41:53.665Z,7.00
2023-02-11T20:44:22.875Z,7.40
2023-02-11T20:46:54.364Z,7.50
2023-02-11T20:49:26.908Z,7.40
2023-02-11T20:54:25.993Z,7.00
2023-02-11T20:56:55.974Z,7.40
2023-02-11T20:59:24.309Z,7.40
2023-02-11T21:01:56.402Z,7.70
2023-02-11T21:04:30.626Z,6.80
2023-02-11T21:07:02.369Z,7.00
2023-02-11T21:09:33.787Z,7.40
2023-02-11T21:12:03.287Z,7.50
2023-02-11T21:24:28.834Z,8.00
2023-02-11T21:46:46.514Z,7.50
2023-02-11T21:51:43.050Z,7.20
2023-02-11T21:54:12.966Z,7.90
2023-02-11T21:59:13.622Z,7.70
2023-02-11T22:01:42.894Z,7.40
2023-02-11T22:09:10.828Z,7.60
2023-02-11T22:11:38.877Z,7.70
2023-02-11T22:16:35.824Z,7.20
2023-02-11T22:21:34.179Z,7.90
2023-02-11T22:24:02.255Z,7.30
2023-02-11T22:26:30.273Z,7.20
2023-02-11T22:31:34.204Z,8.20
2023-02-11T22:34:04.537Z,7.00
2023-02-11T22:36:38.293Z,7.30
2023-02-11T22:39:14.219Z,7.60
2023-02-11T22:41:44.231Z,7.60
2023-02-11T22:44:12.684Z,7.60
2023-02-11T22:51:40.252Z,8.10
2023-02-11T22:54:13.121Z,7.40
2023-02-11T22:56:41.595Z,7.70
2023-02-11T22:59:14.449Z,7.70
2023-02-11T23:01:43.469Z,7.30
2023-02-11T23:04:15.868Z,7.60
2023-02-11T23:09:13.446Z,7.70
2023-02-11T23:11:42.163Z,7.70
2023-02-11T23:14:12.214Z,8.00
2023-02-11T23:16:40.612Z,7.40
2023-02-11T23:19:10.340Z,7.70
2023-02-11T23:21:40.656Z,7.70
2023-02-11T23:24:14.729Z,7.70
2023-02-11T23:26:44.925Z,7.70
2023-02-11T23:29:13.798Z,7.30
2023-02-11T23:31:46.071Z,7.50
2023-02-11T23:34:17.183Z,7.70
2023-02-11T23:36:45.853Z,7.70
2023-02-11T23:39:17.124Z,7.70
2023-02-11T23:41:46.315Z,7.50
2023-02-11T23:49:11.270Z,7.40
2023-02-11T23:59:06.845Z,7.50
